createdAt,value
2023-04-14T00:00:10.635Z,1.30
2023-04-14T00:02:41.344Z,1.20
2023-04-14T00:05:09.593Z,1.20
2023-04-14T00:07:37.458Z,1.25
2023-04-14T00:10:05.437Z,1.20
2023-04-14T00:12:36.112Z,0.95
2023-04-14T00:15:04.362Z,1.40
2023-04-14T00:17:32.712Z,0.80
2023-04-14T00:20:00.732Z,1.10
2023-04-14T00:22:31.117Z,0.95
2023-04-14T00:24:58.929Z,0.90
2023-04-14T00:27:26.866Z,1.13
2023-04-14T00:29:54.543Z,0.90
2023-04-14T00:32:22.211Z,1.08
2023-04-14T00:34:49.834Z,1.20
2023-04-14T00:37:20.290Z,1.33
2023-04-14T00:39:48.065Z,0.95
2023-04-14T00:42:15.684Z,0.90
2023-04-14T00:44:43.932Z,1.00
2023-04-14T00:47:11.724Z,1.10
2023-04-14T00:49:39.721Z,1.15
2023-04-14T00:52:07.668Z,1.15
2023-04-14T00:54:35.722Z,1.02
2023-04-14T00:57:04.509Z,1.30
2023-04-14T00:59:32.523Z,1.20
2023-04-14T01:02:01.989Z,1.10
2023-04-14T01:04:40.776Z,0.98
2023-04-14T01:07:19.791Z,1.20
2023-04-14T01:09:47.847Z,1.10
2023-04-14T01:12:54.003Z,1.30
2023-04-14T01:15:44.420Z,0.93
2023-04-14T01:18:52.049Z,1.20
2023-04-14T01:21:36.351Z,1.17
2023-04-14T01:24:38.871Z,0.95
2023-04-14T01:27:43.774Z,1.20
2023-04-14T01:30:58.208Z,1.27
2023-04-14T01:33:31.031Z,1.10
2023-04-14T01:36:06.416Z,1.30
2023-04-14T01:41:11.082Z,1.08
2023-04-14T01:43:44.914Z,1.33
2023-04-14T01:46:16.622Z,1.02
2023-04-14T01:48:45.710Z,0.90
2023-04-14T01:51:16.980Z,1.15
2023-04-14T01:53:46.602Z,1.10
2023-04-14T01:56:17.477Z,1.38
2023-04-14T01:58:47.859Z,1.00
2023-04-14T02:01:17.397Z,1.13
2023-04-14T02:03:46.269Z,0.93
2023-04-14T02:06:14.988Z,1.00
2023-04-14T02:08:44.255Z,1.17
2023-04-14T02:11:16.204Z,1.00
2023-04-14T02:13:49.436Z,1.05
2023-04-14T02:16:18.053Z,0.95
2023-04-14T02:18:49.335Z,1.10
2023-04-14T02:21:19.023Z,1.00
2023-04-14T02:23:46.788Z,1.08
2023-04-14T02:26:20.510Z,1.00
2023-04-14T02:29:17.402Z,1.20
2023-04-14T02:31:51.340Z,1.20
2023-04-14T02:34:25.417Z,1.10
2023-04-14T02:36:58.387Z,1.17
2023-04-14T02:39:37.636Z,1.20
2023-04-14T02:42:16.466Z,1.00
2023-04-14T02:45:00.909Z,1.00
2023-04-14T02:47:34.622Z,1.30
2023-04-14T02:50:06.164Z,0.90
2023-04-14T02:52:39.150Z,1.35
2023-04-14T02:55:10.113Z,1.15
2023-04-14T02:57:38.526Z,1.27
2023-04-14T03:00:08.405Z,1.08
2023-04-14T03:02:46.650Z,1.10
2023-04-14T03:05:15.074Z,1.02
2023-04-14T03:07:56.216Z,1.08
2023-04-14T03:10:25.061Z,1.15
2023-04-14T03:12:54.389Z,0.90
2023-04-14T03:15:26.303Z,1.10
2023-04-14T03:17:57.554Z,1.20
2023-04-14T03:20:30.197Z,1.00
2023-04-14T03:23:06.452Z,1.20
2023-04-14T03:25:42.837Z,1.35
2023-04-14T03:28:23.064Z,1.05
2023-04-14T03:30:54.465Z,1.25
2023-04-14T03:33:28.824Z,1.00
2023-04-14T03:36:01.823Z,0.90
2023-04-14T03:38:32.413Z,1.15
2023-04-14T03:41:05.809Z,1.10
2023-04-14T03:43:34.475Z,1.15
2023-04-14T03:46:07.676Z,1.10
2023-04-14T03:48:42.855Z,1.17
2023-04-14T03:51:16.362Z,1.00
2023-04-14T03:53:47.011Z,1.30
2023-04-14T03:56:18.272Z,1.02
2023-04-14T03:58:48.260Z,1.30
2023-04-14T04:05:49.456Z,1.10
2023-04-14T04:08:20.208Z,1.30
2023-04-14T04:10:49.990Z,1.20
2023-04-14T04:13:24.038Z,1.05
2023-04-14T04:15:52.503Z,1.15
2023-04-14T04:18:27.087Z,1.17
2023-04-14T04:20:58.647Z,1.30
2023-04-14T04:23:31.791Z,1.10
2023-04-14T04:26:00.042Z,1.20
2023-04-14T04:28:39.818Z,1.10
2023-04-14T04:31:10.105Z,1.17
2023-04-14T04:33:39.396Z,1.30
2023-04-14T04:36:14.581Z,1.48
2023-04-14T04:38:44.220Z,1.20
2023-04-14T04:41:30.363Z,1.60
2023-04-14T04:44:02.055Z,1.20
2023-04-14T04:46:55.076Z,1.30
2023-04-14T04:49:28.594Z,1.40
2023-04-14T04:52:01.794Z,1.70
2023-04-14T04:54:29.445Z,1.63
2023-04-14T04:56:58.995Z,2.05
2023-04-14T04:59:26.759Z,1.48
2023-04-14T05:01:55.426Z,1.77
2023-04-14T05:04:23.100Z,1.67
2023-04-14T05:06:51.007Z,1.95
2023-04-14T05:09:18.595Z,1.38
2023-04-14T05:11:46.501Z,1.30
2023-04-14T05:14:14.255Z,1.55
2023-04-14T05:16:42.366Z,2.00
2023-04-14T05:19:09.998Z,1.52
2023-04-14T05:21:38.016Z,1.85
2023-04-14T05:24:09.625Z,1.23
2023-04-14T05:26:54.850Z,1.17
2023-04-14T05:29:26.016Z,1.90
2023-04-14T05:31:53.510Z,1.33
2023-04-14T05:34:21.199Z,1.27
2023-04-14T05:36:48.771Z,1.45
2023-04-14T05:39:16.883Z,1.42
2023-04-14T05:41:44.503Z,1.83
2023-04-14T05:44:12.341Z,1.63
2023-04-14T05:46:39.949Z,1.80
2023-04-14T05:49:08.007Z,1.70
2023-04-14T05:51:36.497Z,1.50
2023-04-14T05:54:04.287Z,1.52
2023-04-14T05:56:32.158Z,1.70
2023-04-14T05:58:59.887Z,1.50
2023-04-14T06:01:27.640Z,1.60
2023-04-14T06:03:55.353Z,1.60
2023-04-14T06:06:23.427Z,1.70
2023-04-14T06:08:56.600Z,1.30
2023-04-14T06:11:24.325Z,1.70
2023-04-14T06:13:52.267Z,1.50
2023-04-14T06:16:19.870Z,1.45
2023-04-14T06:18:50.443Z,1.23
2023-04-14T06:21:18.025Z,1.75
2023-04-14T06:23:45.756Z,1.70
2023-04-14T06:26:13.439Z,1.27
2023-04-14T06:28:44.436Z,1.60
2023-04-14T06:31:12.117Z,1.70
2023-04-14T06:33:39.783Z,1.30
2023-04-14T06:36:07.994Z,1.70
2023-04-14T06:38:36.757Z,1.27
2023-04-14T06:41:04.678Z,1.50
2023-04-14T06:43:32.226Z,1.90
2023-04-14T06:46:01.587Z,2.10
2023-04-14T06:48:29.321Z,2.10
2023-04-14T06:50:57.746Z,2.50
2023-04-14T06:53:26.715Z,2.78
2023-04-14T06:56:00.761Z,2.92
2023-04-14T06:58:29.364Z,3.03
2023-04-14T07:00:58.990Z,3.50
2023-04-14T07:03:28.525Z,3.42
2023-04-14T07:06:06.062Z,2.67
2023-04-14T07:08:35.440Z,3.15
2023-04-14T07:11:06.628Z,3.10
2023-04-14T07:13:34.608Z,2.92
2023-04-14T07:16:03.880Z,2.55
2023-04-14T07:18:32.090Z,3.50
2023-04-14T07:21:03.290Z,2.78
2023-04-14T07:23:31.329Z,2.75
2023-04-14T07:26:01.135Z,2.45
2023-04-14T07:28:28.890Z,2.33
2023-04-14T07:30:56.950Z,2.50
2023-04-14T07:33:25.544Z,2.55
2023-04-14T07:36:03.096Z,2.42
2023-04-14T07:38:34.595Z,2.70
2023-04-14T07:41:07.318Z,2.50
2023-04-14T07:43:36.017Z,2.72
2023-04-14T07:46:06.121Z,2.45
2023-04-14T07:48:38.283Z,2.45
2023-04-14T07:51:07.172Z,2.30
2023-04-14T07:53:40.683Z,2.70
2023-04-14T07:56:08.851Z,2.00
2023-04-14T07:58:38.261Z,2.47
2023-04-14T08:01:14.431Z,2.30
2023-04-14T08:03:45.177Z,1.95
2023-04-14T08:06:13.767Z,2.10
2023-04-14T08:08:41.288Z,1.83
2023-04-14T08:11:08.944Z,7.10
2023-04-14T08:13:36.412Z,9.18
2023-04-14T08:16:04.839Z,7.70
2023-04-14T08:18:32.692Z,7.15
2023-04-14T08:21:00.562Z,7.13
2023-04-14T08:23:28.207Z,7.38
2023-04-14T08:25:55.937Z,6.55
2023-04-14T08:28:23.669Z,6.90
2023-04-14T08:30:52.274Z,6.05
2023-04-14T08:33:19.824Z,6.22
2023-04-14T08:35:47.434Z,6.32
2023-04-14T08:38:27.087Z,5.57
2023-04-14T08:40:56.956Z,5.45
2023-04-14T08:43:24.897Z,5.70
2023-04-14T08:45:54.145Z,5.38
2023-04-14T08:48:25.039Z,5.28
2023-04-14T08:51:07.358Z,4.90
2023-04-14T08:53:42.950Z,4.30
2023-04-14T08:56:15.289Z,5.05
2023-04-14T08:58:43.289Z,4.60
2023-04-14T09:01:11.638Z,4.20
2023-04-14T09:03:42.764Z,4.35
2023-04-14T09:06:12.478Z,4.03
2023-04-14T09:08:40.261Z,4.85
2023-04-14T09:11:10.759Z,4.18
2023-04-14T09:13:39.536Z,3.55
2023-04-14T09:16:08.891Z,4.13
2023-04-14T09:18:36.757Z,4.13
2023-04-14T09:21:31.754Z,3.53
2023-04-14T09:23:54.514Z,3.28
2023-04-14T09:26:22.775Z,3.58
2023-04-14T09:28:50.890Z,3.70
2023-04-14T09:31:19.928Z,2.83
2023-04-14T09:33:57.519Z,3.40
2023-04-14T09:36:29.181Z,3.05
2023-04-14T09:38:57.550Z,3.33
2023-04-14T09:41:28.546Z,3.60
2023-04-14T09:43:56.635Z,2.72
2023-04-14T09:46:24.569Z,2.70
2023-04-14T09:48:56.799Z,2.78
2023-04-14T09:51:34.009Z,2.80
2023-04-14T09:54:06.264Z,3.00
2023-04-14T09:56:34.425Z,4.32
2023-04-14T09:59:04.281Z,6.25
2023-04-14T10:01:34.706Z,6.85
2023-04-14T10:04:03.450Z,7.53
2023-04-14T10:06:34.016Z,8.07
2023-04-14T10:09:02.275Z,7.55
2023-04-14T10:11:38.336Z,9.07
2023-04-14T10:14:06.995Z,7.70
2023-04-14T10:16:35.210Z,7.85
2023-04-14T10:19:03.889Z,7.30
2023-04-14T10:21:32.244Z,6.90
2023-04-14T10:24:00.360Z,7.30
2023-04-14T10:26:30.231Z,6.97
2023-04-14T10:28:58.763Z,7.13
2023-04-14T10:31:41.202Z,6.38
2023-04-14T10:34:16.602Z,6.45
2023-04-14T10:36:51.034Z,6.57
2023-04-14T10:39:28.860Z,6.25
2023-04-14T10:41:57.084Z,6.15
2023-04-14T10:44:35.299Z,6.03
2023-04-14T10:47:08.950Z,6.00
2023-04-14T10:49:41.713Z,6.72
2023-04-14T10:52:15.882Z,6.18
2023-04-14T10:54:54.411Z,5.97
2023-04-14T10:57:26.980Z,5.95
2023-04-14T10:59:57.726Z,6.00
2023-04-14T11:02:34.002Z,5.10
2023-04-14T11:05:14.696Z,6.18
2023-04-14T11:07:54.663Z,5.88
2023-04-14T11:10:22.652Z,5.60
2023-04-14T11:13:11.821Z,5.38
2023-04-14T11:16:09.901Z,4.82
2023-04-14T11:18:45.315Z,4.68
2023-04-14T11:21:17.292Z,4.32
2023-04-14T11:23:45.230Z,4.90
2023-04-14T11:26:14.424Z,4.82
2023-04-14T11:28:47.921Z,5.78
2023-04-14T11:31:17.381Z,5.18
2023-04-14T11:33:45.197Z,4.43
2023-04-14T11:36:13.670Z,4.25
2023-04-14T11:38:42.931Z,5.10
2023-04-14T11:41:11.103Z,4.88
2023-04-14T11:43:39.596Z,4.80
2023-04-14T11:46:09.018Z,4.55
2023-04-14T11:48:37.570Z,4.75
2023-04-14T11:51:08.274Z,3.65
2023-04-14T11:53:40.059Z,4.75
2023-04-14T11:56:09.364Z,4.43
2023-04-14T11:58:37.433Z,3.83
2023-04-14T12:01:05.752Z,4.07
2023-04-14T12:03:35.892Z,3.78
2023-04-14T12:06:04.876Z,4.20
2023-04-14T12:08:34.458Z,4.00
2023-04-14T12:11:18.567Z,3.80
2023-04-14T12:13:48.312Z,3.78
2023-04-14T12:16:17.717Z,3.63
2023-04-14T12:18:46.533Z,3.97
2023-04-14T12:21:21.197Z,3.70
2023-04-14T12:23:49.600Z,3.47
2023-04-14T12:26:20.010Z,3.90
2023-04-14T12:28:58.127Z,3.30
2023-04-14T12:31:32.801Z,3.42
2023-04-14T12:34:04.298Z,3.20
2023-04-14T12:36:48.130Z,3.10
2023-04-14T12:39:23.573Z,3.25
2023-04-14T12:41:51.489Z,3.15
2023-04-14T12:44:22.198Z,3.20
2023-04-14T12:46:52.958Z,3.10
2023-04-14T12:49:39.276Z,2.55
2023-04-14T12:52:08.772Z,2.53
2023-04-14T12:54:52.843Z,2.90
2023-04-14T12:57:22.060Z,2.60
2023-04-14T12:59:50.787Z,3.03
2023-04-14T13:02:19.064Z,3.28
2023-04-14T13:04:47.066Z,2.60
2023-04-14T13:07:14.763Z,2.38
2023-04-14T13:09:43.929Z,2.72
2023-04-14T13:12:11.631Z,2.38
2023-04-14T13:14:39.591Z,2.58
2023-04-14T13:17:07.996Z,2.60
2023-04-14T13:19:35.868Z,2.40
2023-04-14T13:22:06.723Z,2.40
2023-04-14T13:24:34.560Z,2.20
2023-04-14T13:27:06.998Z,2.05
2023-04-14T13:29:41.186Z,2.50
2023-04-14T13:32:11.360Z,2.20
2023-04-14T13:34:42.484Z,2.40
2023-04-14T13:37:13.650Z,2.00
2023-04-14T13:39:41.614Z,1.98
2023-04-14T13:42:12.220Z,1.88
2023-04-14T13:44:39.964Z,1.50
2023-04-14T13:47:08.357Z,1.52
2023-04-14T13:49:35.948Z,1.70
2023-04-14T13:52:04.356Z,2.17
2023-04-14T13:54:32.148Z,1.58
2023-04-14T13:57:01.134Z,1.75
2023-04-14T13:59:31.514Z,1.30
2023-04-14T14:01:59.943Z,1.25
2023-04-14T14:04:27.992Z,1.30
2023-04-14T14:06:58.406Z,1.35
2023-04-14T14:09:26.195Z,1.17
2023-04-14T14:11:53.826Z,1.23
2023-04-14T14:14:22.061Z,1.20
2023-04-14T14:16:49.990Z,1.00
2023-04-14T14:19:18.513Z,1.13
2023-04-14T14:21:46.579Z,1.20
2023-04-14T14:24:15.066Z,1.10
2023-04-14T14:26:42.884Z,0.95
2023-04-14T14:29:11.077Z,1.05
2023-04-14T14:31:39.011Z,1.25
2023-04-14T14:34:07.627Z,1.10
2023-04-14T14:36:36.980Z,1.33
2023-04-14T14:39:05.162Z,0.90
2023-04-14T14:41:32.932Z,1.27
2023-04-14T14:44:01.561Z,1.42
2023-04-14T14:46:30.289Z,1.27
2023-04-14T14:48:58.734Z,1.20
2023-04-14T14:51:28.229Z,1.40
2023-04-14T14:54:08.954Z,1.90
2023-04-14T14:56:37.375Z,2.28
2023-04-14T14:59:10.001Z,1.80
2023-04-14T15:01:39.413Z,2.00
2023-04-14T15:04:09.677Z,2.03
2023-04-14T15:06:38.353Z,2.30
2023-04-14T15:09:08.833Z,1.90
2023-04-14T15:11:36.666Z,1.80
2023-04-14T15:14:05.348Z,1.77
2023-04-14T15:16:33.760Z,1.88
2023-04-14T15:19:02.030Z,1.75
2023-04-14T15:21:33.081Z,1.80
2023-04-14T15:24:02.241Z,1.52
2023-04-14T15:26:30.234Z,1.85
2023-04-14T15:28:57.990Z,1.83
2023-04-14T15:31:28.947Z,1.63
2023-04-14T15:34:00.942Z,1.80
2023-04-14T15:36:29.438Z,2.22
2023-04-14T15:39:00.576Z,1.98
2023-04-14T15:41:29.412Z,1.85
2023-04-14T15:43:57.449Z,2.35
2023-04-14T15:46:25.385Z,1.88
2023-04-14T15:48:53.200Z,2.17
2023-04-14T15:51:20.780Z,1.73
2023-04-14T15:53:49.151Z,2.08
2023-04-14T15:56:16.672Z,2.28
2023-04-14T15:58:44.190Z,2.28
2023-04-14T16:01:12.647Z,1.98
2023-04-14T16:03:40.571Z,1.90
2023-04-14T16:06:10.763Z,1.83
2023-04-14T16:08:38.306Z,1.85
2023-04-14T16:11:16.805Z,1.70
2023-04-14T16:13:45.803Z,1.73
2023-04-14T16:16:15.630Z,1.40
2023-04-14T16:18:43.483Z,2.17
2023-04-14T16:21:11.522Z,1.80
2023-04-14T16:23:39.281Z,1.58
2023-04-14T16:26:06.854Z,1.60
2023-04-14T16:28:35.374Z,1.52
2023-04-14T16:31:03.865Z,1.40
2023-04-14T16:33:34.484Z,1.25
2023-04-14T16:36:09.222Z,1.65
2023-04-14T16:38:36.877Z,1.38
2023-04-14T16:41:04.633Z,1.50
2023-04-14T16:43:33.021Z,2.03
2023-04-14T16:46:04.949Z,1.70
2023-04-14T16:48:33.528Z,1.77
2023-04-14T16:51:09.755Z,1.30
2023-04-14T16:53:40.933Z,1.92
2023-04-14T16:56:10.273Z,1.52
2023-04-14T16:58:40.216Z,1.45
2023-04-14T17:01:10.638Z,1.40
2023-04-14T17:03:39.661Z,1.63
2023-04-14T17:06:07.625Z,1.60
2023-04-14T17:08:35.457Z,1.77
2023-04-14T17:11:03.672Z,1.65
2023-04-14T17:13:31.277Z,1.30
2023-04-14T17:16:08.279Z,1.35
2023-04-14T17:18:37.351Z,1.40
2023-04-14T17:21:06.578Z,1.75
2023-04-14T17:23:38.251Z,1.25
2023-04-14T17:26:06.103Z,1.40
2023-04-14T17:28:37.441Z,1.60
2023-04-14T17:31:15.774Z,1.23
2023-04-14T17:33:47.594Z,1.25
2023-04-14T17:36:16.792Z,1.20
2023-04-14T17:38:44.912Z,1.25
2023-04-14T17:41:14.894Z,1.70
2023-04-14T17:43:46.771Z,1.52
2023-04-14T17:46:15.428Z,1.48
2023-04-14T17:48:43.075Z,1.33
2023-04-14T17:51:11.776Z,1.17
2023-04-14T17:53:39.308Z,0.90
2023-04-14T17:56:11.343Z,1.40
2023-04-14T17:58:38.805Z,1.48
2023-04-14T18:01:06.405Z,1.20
2023-04-14T18:03:36.647Z,0.90
2023-04-14T18:06:04.602Z,1.50
2023-04-14T18:08:34.990Z,1.10
2023-04-14T18:11:02.476Z,1.10
2023-04-14T18:13:33.713Z,0.90
2023-04-14T18:16:02.093Z,1.23
2023-04-14T18:18:32.012Z,1.23
2023-04-14T18:20:59.365Z,1.15
2023-04-14T18:23:26.929Z,1.10
2023-04-14T18:28:33.419Z,1.20
2023-04-14T18:31:01.809Z,1.30
2023-04-14T18:33:30.000Z,1.10
2023-04-14T18:36:00.769Z,1.42
2023-04-14T18:38:28.956Z,1.20
2023-04-14T18:41:05.571Z,1.65
2023-04-14T18:43:34.094Z,1.55
2023-04-14T18:46:02.844Z,1.27
2023-04-14T18:48:31.065Z,1.40
2023-04-14T18:51:02.657Z,1.50
2023-04-14T18:53:30.443Z,1.35
2023-04-14T18:56:00.722Z,1.45
2023-04-14T18:58:30.612Z,1.00
2023-04-14T19:00:58.585Z,1.60
2023-04-14T19:03:27.530Z,1.30
2023-04-14T19:05:55.688Z,1.00
2023-04-14T19:08:23.248Z,1.63
2023-04-14T19:10:51.997Z,1.50
2023-04-14T19:13:19.896Z,1.27
2023-04-14T19:15:47.525Z,2.10
2023-04-14T19:18:17.122Z,1.95
2023-04-14T19:20:47.557Z,1.40
2023-04-14T19:23:15.446Z,1.40
2023-04-14T19:25:43.139Z,1.63
2023-04-14T19:28:16.751Z,1.60
2023-04-14T19:30:46.088Z,1.98
2023-04-14T19:33:14.232Z,2.53
2023-04-14T19:35:44.450Z,6.00
2023-04-14T19:38:12.560Z,10.52
2023-04-14T19:40:49.034Z,13.63
2023-04-14T19:43:20.805Z,15.43
2023-04-14T19:45:57.301Z,15.05
2023-04-14T19:48:25.644Z,19.23
2023-04-14T19:50:56.842Z,28.60
2023-04-14T19:53:24.929Z,36.25
2023-04-14T19:55:56.108Z,35.67
2023-04-14T19:58:31.443Z,35.33
2023-04-14T20:01:01.138Z,34.95
2023-04-14T20:03:29.174Z,36.70
2023-04-14T20:05:58.228Z,36.72
2023-04-14T20:08:30.765Z,37.85
2023-04-14T20:10:59.089Z,34.67
2023-04-14T20:13:30.720Z,31.55
2023-04-14T20:15:59.093Z,31.42
2023-04-14T20:18:28.163Z,29.80
2023-04-14T20:20:56.890Z,31.25
2023-04-14T20:23:24.573Z,29.75
2023-04-14T20:25:53.325Z,27.52
2023-04-14T20:28:23.298Z,24.85
2023-04-14T20:30:54.812Z,25.95
2023-04-14T20:33:23.316Z,26.15
2023-04-14T20:35:53.689Z,24.20
2023-04-14T20:38:22.683Z,22.63
2023-04-14T20:40:50.405Z,22.65
2023-04-14T20:43:24.850Z,25.05
2023-04-14T20:45:53.477Z,23.37
2023-04-14T20:48:21.320Z,26.48
2023-04-14T20:50:50.367Z,25.45
2023-04-14T20:53:19.461Z,24.60
2023-04-14T20:55:47.074Z,26.23
2023-04-14T20:58:14.922Z,26.67
2023-04-14T21:00:43.602Z,23.88
2023-04-14T21:03:12.032Z,25.70
2023-04-14T21:05:42.721Z,25.25
2023-04-14T21:08:10.299Z,24.15
2023-04-14T21:11:02.177Z,24.45
2023-04-14T21:15:29.719Z,22.20
2023-04-14T21:16:19.455Z,22.27
2023-04-14T21:18:47.521Z,20.75
2023-04-14T21:21:15.639Z,20.38
2023-04-14T21:23:45.126Z,20.08
2023-04-14T21:26:13.652Z,19.90
2023-04-14T21:28:42.100Z,18.02
2023-04-14T21:31:10.692Z,17.73
2023-04-14T21:33:40.290Z,17.42
2023-04-14T21:36:11.136Z,17.60
2023-04-14T21:38:39.639Z,17.17
2023-04-14T21:41:09.016Z,17.13
2023-04-14T21:43:41.035Z,16.02
2023-04-14T21:46:09.025Z,16.85
2023-04-14T21:48:36.904Z,15.02
2023-04-14T21:51:05.391Z,14.90
2023-04-14T21:53:33.548Z,14.32
2023-04-14T21:56:09.300Z,14.77
2023-04-14T21:58:42.316Z,15.63
2023-04-14T22:01:10.493Z,14.63
2023-04-14T22:03:41.167Z,13.90
2023-04-14T22:06:11.548Z,12.02
2023-04-14T22:08:41.146Z,12.65
2023-04-14T22:11:09.174Z,11.85
2023-04-14T22:13:37.108Z,11.10
2023-04-14T22:16:05.560Z,11.95
2023-04-14T22:18:33.197Z,10.88
2023-04-14T22:21:00.846Z,11.13
2023-04-14T22:23:28.755Z,11.45
2023-04-14T22:25:57.120Z,9.52
2023-04-14T22:28:24.763Z,10.45
2023-04-14T22:30:52.471Z,10.25
2023-04-14T22:33:20.298Z,9.10
2023-04-14T22:35:48.164Z,9.45
2023-04-14T22:38:15.927Z,9.93
2023-04-14T22:40:43.725Z,9.05
2023-04-14T22:43:11.328Z,9.85
2023-04-14T22:45:40.256Z,9.57
2023-04-14T22:48:11.912Z,8.98
2023-04-14T22:50:40.130Z,8.38
2023-04-14T22:53:07.861Z,8.32
2023-04-14T22:55:35.498Z,7.60
2023-04-14T22:58:03.358Z,7.72
2023-04-14T23:00:31.814Z,7.93
2023-04-14T23:02:59.980Z,7.07
2023-04-14T23:05:28.268Z,7.68
2023-04-14T23:07:59.100Z,7.40
2023-04-14T23:10:26.775Z,6.53
2023-04-14T23:12:58.695Z,6.50
2023-04-14T23:15:26.604Z,7.82
2023-04-14T23:17:54.346Z,6.43
2023-04-14T23:20:23.575Z,5.60
2023-04-14T23:22:51.737Z,5.65
2023-04-14T23:25:19.604Z,5.72
2023-04-14T23:27:50.146Z,5.38
2023-04-14T23:30:18.310Z,6.00
2023-04-14T23:32:46.765Z,5.07
2023-04-14T23:35:14.903Z,5.25
2023-04-14T23:37:42.608Z,5.60
2023-04-14T23:40:11.372Z,5.35
2023-04-14T23:42:38.914Z,5.00
2023-04-14T23:45:08.340Z,5.68
2023-04-14T23:47:36.746Z,4.60
2023-04-14T23:50:05.203Z,5.57
2023-04-14T23:52:36.280Z,4.22
2023-04-14T23:55:07.374Z,4.70
2023-04-14T23:57:35.069Z,4.70
